Time;durP1;ratioP1;P1;durP2;ratioP2;P2;SDS_P1;SDS_P2;PMS_P1;PMS_P2;Temp;Humidity;BMP_temperature;BMP_pressure;BME280_temperature;BME280_humidity;BME280_pressure;Samples;Min_cycle;Max_cycle;Signal;HPM_P1;HPM_P2
2022/06/29 00:02:25;;;;;;;;;;;20.30;99.90;;;;;;5043084;28;19957;-69
2022/06/29 00:04:51;;;;;;;;;;;20.30;99.90;;;;;;5042959;28;19963;-69
2022/06/29 00:07:18;;;;;;;;;;;20.20;99.90;;;;;;5043497;28;20105;-69
2022/06/29 00:09:45;;;;;;;;;;;20.20;99.90;;;;;;5042944;28;19956;-69
2022/06/29 00:12:11;;;;;;;;;;;20.20;99.90;;;;;;5042921;28;20236;-69
2022/06/29 00:14:41;;;;;;;;;;;20.20;99.90;;;;;;5041831;28;19921;-69
2022/06/29 00:17:10;;;;;;;;;;;20.20;99.90;;;;;;5043191;28;19963;-69
2022/06/29 00:19:37;;;;;;;;;;;20.10;99.90;;;;;;5043232;28;19928;-69
2022/06/29 00:22:04;;;;;;;;;;;20.20;99.90;;;;;;5043016;28;19988;-69
2022/06/29 00:24:31;;;;;;;;;;;20.10;99.90;;;;;;5042436;28;19952;-69
2022/06/29 00:26:57;;;;;;;;;;;20.20;99.90;;;;;;5042919;28;19928;-69
2022/06/29 00:29:24;;;;;;;;;;;20.20;99.90;;;;;;5042832;28;20008;-69
2022/06/29 00:31:51;;;;;;;;;;;20.10;99.90;;;;;;5043331;28;19980;-69
2022/06/29 00:34:19;;;;;;;;;;;20.10;99.90;;;;;;5043009;28;19928;-69
2022/06/29 00:36:45;;;;;;;;;;;20.00;99.90;;;;;;5043325;28;19929;-69
2022/06/29 00:39:12;;;;;;;;;;;20.00;99.90;;;;;;5042011;28;19962;-69
2022/06/29 00:41:39;;;;;;;;;;;20.00;99.90;;;;;;5042662;28;19984;-69
2022/06/29 00:44:07;;;;;;;;;;;20.00;99.90;;;;;;5042788;28;19921;-69
2022/06/29 00:46:34;;;;;;;;;;;20.00;99.90;;;;;;5043029;28;19928;-69
2022/06/29 00:49:01;;;;;;;;;;;20.00;99.90;;;;;;5042541;28;19921;-69
2022/06/29 00:51:30;;;;;;;;;;;20.10;99.90;;;;;;5042656;28;20137;-69
2022/06/29 00:53:58;;;;;;;;;;;20.10;99.90;;;;;;5042585;28;19927;-69
2022/06/29 00:56:25;;;;;;;;;;;20.20;99.90;;;;;;5042345;28;19972;-69
2022/06/29 00:58:54;;;;;;;;;;;20.10;99.90;;;;;;5034469;28;20232;-69
2022/06/29 01:01:20;;;;;;;;;;;20.10;99.90;;;;;;5030292;28;19959;-69
2022/06/29 01:03:47;;;;;;;;;;;20.10;99.90;;;;;;5042641;28;19980;-69
2022/06/29 01:06:14;;;;;;;;;;;20.10;99.90;;;;;;5042401;28;20283;-69
2022/06/29 01:08:42;;;;;;;;;;;20.10;99.90;;;;;;5042520;28;19987;-69
2022/06/29 01:11:09;;;;;;;;;;;20.10;99.90;;;;;;5042385;28;19921;-69
2022/06/29 01:13:36;;;;;;;;;;;20.00;99.90;;;;;;5044538;28;20252;-69
2022/06/29 01:16:03;;;;;;;;;;;20.00;99.90;;;;;;5046359;28;19959;-69
2022/06/29 01:18:29;;;;;;;;;;;20.00;99.90;;;;;;5046149;28;19928;-69
2022/06/29 01:20:56;;;;;;;;;;;19.90;99.90;;;;;;5046026;28;19928;-69
2022/06/29 01:23:24;;;;;;;;;;;19.90;99.90;;;;;;5046050;28;19957;-69
2022/06/29 01:25:51;;;;;;;;;;;19.80;99.90;;;;;;5046006;28;19921;-69
2022/06/29 01:28:17;;;;;;;;;;;19.80;99.90;;;;;;5045824;28;19921;-69
2022/06/29 01:30:44;;;;;;;;;;;19.80;99.90;;;;;;5045841;28;19921;-69
2022/06/29 01:33:11;;;;;;;;;;;19.80;99.90;;;;;;5045691;28;19964;-69
2022/06/29 01:35:38;;;;;;;;;;;19.80;99.90;;;;;;5045564;28;20101;-69
2022/06/29 01:38:05;;;;;;;;;;;19.80;99.90;;;;;;5044908;28;19984;-69
2022/06/29 01:40:33;;;;;;;;;;;19.80;99.90;;;;;;5045922;28;19921;-69
2022/06/29 01:42:59;;;;;;;;;;;19.80;99.90;;;;;;5045407;28;19960;-69
2022/06/29 01:45:26;;;;;;;;;;;19.80;99.90;;;;;;5044993;28;19929;-69
2022/06/29 01:47:53;;;;;;;;;;;19.80;99.90;;;;;;5045651;28;20112;-69
2022/06/29 01:50:22;;;;;;;;;;;19.90;99.90;;;;;;5044474;28;20124;-68
2022/06/29 01:52:49;;;;;;;;;;;19.80;99.90;;;;;;5045989;28;19921;-69
2022/06/29 01:55:16;;;;;;;;;;;19.70;99.90;;;;;;5045944;28;19956;-68
2022/06/29 01:57:44;;;;;;;;;;;19.70;99.90;;;;;;5045477;28;20263;-69
2022/06/29 02:00:12;;;;;;;;;;;19.70;99.90;;;;;;5045817;28;19979;-69
2022/06/29 02:02:38;;;;;;;;;;;19.70;99.90;;;;;;5045525;28;19925;-69
2022/06/29 02:05:06;;;;;;;;;;;19.60;99.90;;;;;;5045705;28;19921;-69
2022/06/29 02:07:32;;;;;;;;;;;19.70;99.90;;;;;;5045714;28;19920;-69
2022/06/29 02:09:59;;;;;;;;;;;19.60;99.90;;;;;;5045586;28;19927;-69
2022/06/29 02:12:26;;;;;;;;;;;19.60;99.90;;;;;;5045489;28;19980;-68
2022/06/29 02:14:54;;;;;;;;;;;19.60;99.90;;;;;;5045436;28;19928;-69
2022/06/29 02:17:22;;;;;;;;;;;19.60;99.90;;;;;;5045636;28;19952;-69
2022/06/29 02:19:49;;;;;;;;;;;19.50;99.90;;;;;;5045146;28;19928;-69
2022/06/29 02:22:16;;;;;;;;;;;19.60;99.90;;;;;;5045400;28;19963;-69
2022/06/29 02:24:43;;;;;;;;;;;19.60;99.90;;;;;;5045024;28;19988;-68
2022/06/29 02:27:10;;;;;;;;;;;19.60;99.90;;;;;;5045260;28;20231;-68
2022/06/29 02:29:37;;;;;;;;;;;19.50;99.90;;;;;;5045280;28;20183;-68
2022/06/29 02:34:49;;;;;;;;;;;19.50;99.90;;;;;;5045063;28;19956;-68
2022/06/29 02:37:16;;;;;;;;;;;19.50;99.90;;;;;;5044880;28;19953;-68
2022/06/29 02:39:43;;;;;;;;;;;19.50;99.90;;;;;;5044891;28;19984;-69
2022/06/29 02:42:10;;;;;;;;;;;19.50;99.90;;;;;;5044540;28;19921;-69
2022/06/29 02:44:37;;;;;;;;;;;19.60;99.90;;;;;;5044922;28;19921;-69
2022/06/29 02:47:05;;;;;;;;;;;19.60;99.90;;;;;;5045050;28;19921;-69
2022/06/29 02:49:32;;;;;;;;;;;19.60;99.90;;;;;;5044340;28;19921;-69
2022/06/29 02:51:59;;;;;;;;;;;19.60;99.90;;;;;;5044444;28;19936;-69
2022/06/29 02:54:26;;;;;;;;;;;19.60;99.90;;;;;;5044117;28;19993;-69
2022/06/29 02:56:53;;;;;;;;;;;19.60;99.90;;;;;;5043830;28;19963;-69
2022/06/29 02:59:20;;;;;;;;;;;19.60;99.90;;;;;;5035823;28;19928;-69
2022/06/29 03:01:47;;;;;;;;;;;19.60;99.90;;;;;;5044353;28;19980;-69
2022/06/29 03:04:15;;;;;;;;;;;19.50;99.90;;;;;;5043866;28;19984;-69
2022/06/29 03:06:42;;;;;;;;;;;19.50;99.90;;;;;;5044696;28;19921;-69
2022/06/29 03:09:09;;;;;;;;;;;19.60;99.90;;;;;;5043490;28;20115;-69
2022/06/29 03:11:36;;;;;;;;;;;19.60;99.90;;;;;;5043978;28;19920;-69
2022/06/29 03:14:03;;;;;;;;;;;19.50;99.90;;;;;;5044042;28;19994;-69
2022/06/29 03:16:30;;;;;;;;;;;19.50;99.90;;;;;;5043869;28;19985;-68
2022/06/29 03:18:57;;;;;;;;;;;19.60;99.90;;;;;;5043937;28;19984;-69
2022/06/29 03:21:25;;;;;;;;;;;19.60;99.90;;;;;;5043300;28;19932;-68
2022/06/29 03:23:51;;;;;;;;;;;19.50;99.90;;;;;;5043511;28;19996;-69
2022/06/29 03:26:18;;;;;;;;;;;19.50;99.90;;;;;;5043451;28;19988;-69
2022/06/29 03:28:45;;;;;;;;;;;19.50;99.90;;;;;;5043818;28;19960;-69
2022/06/29 03:31:12;;;;;;;;;;;19.50;99.90;;;;;;5043353;28;20266;-69
2022/06/29 03:33:39;;;;;;;;;;;19.50;99.90;;;;;;5043007;28;19971;-69
2022/06/29 03:36:05;;;;;;;;;;;19.50;99.90;;;;;;5038832;28;19988;-69
2022/06/29 03:38:33;;;;;;;;;;;19.50;99.90;;;;;;5033670;28;19957;-69
2022/06/29 03:41:00;;;;;;;;;;;19.60;99.90;;;;;;5033248;28;19957;-69
2022/06/29 03:43:27;;;;;;;;;;;19.60;99.90;;;;;;5032278;28;19929;-69
2022/06/29 03:45:53;;;;;;;;;;;19.60;99.90;;;;;;5033807;28;19957;-69
2022/06/29 03:48:20;;;;;;;;;;;19.60;99.90;;;;;;5023653;28;20120;-69
2022/06/29 03:50:47;;;;;;;;;;;19.60;99.90;;;;;;5037582;28;20145;-69
2022/06/29 03:53:14;;;;;;;;;;;19.60;99.90;;;;;;5043059;28;20244;-69
2022/06/29 03:55:42;;;;;;;;;;;19.70;99.90;;;;;;5042719;28;19962;-69
2022/06/29 03:58:09;;;;;;;;;;;19.70;99.90;;;;;;5042500;28;19949;-69
2022/06/29 04:00:36;;;;;;;;;;;19.60;99.90;;;;;;5043069;28;19959;-69
2022/06/29 04:03:03;;;;;;;;;;;19.70;99.90;;;;;;5043193;28;19953;-69
2022/06/29 04:05:29;;;;;;;;;;;19.70;99.90;;;;;;5042927;28;19964;-69
2022/06/29 04:07:56;;;;;;;;;;;19.70;99.90;;;;;;5042905;28;19925;-69
2022/06/29 04:10:23;;;;;;;;;;;19.70;99.90;;;;;;5043066;28;19952;-69
2022/06/29 04:12:51;;;;;;;;;;;19.70;99.90;;;;;;5043025;28;19984;-69
2022/06/29 04:15:17;;;;;;;;;;;19.80;99.90;;;;;;5042913;28;20005;-69
2022/06/29 04:17:44;;;;;;;;;;;19.80;99.90;;;;;;5043051;28;19959;-68
2022/06/29 04:21:05;;;;;;;;;;;19.80;99.90;;;;;;5042930;28;19928;-67
2022/06/29 04:23:00;;;;;;;;;;;19.90;99.90;;;;;;5042336;28;19925;-68
2022/06/29 04:25:27;;;;;;;;;;;19.90;99.90;;;;;;5042900;28;19987;-68
2022/06/29 04:27:55;;;;;;;;;;;20.00;99.90;;;;;;5043032;28;19975;-68
2022/06/29 04:30:21;;;;;;;;;;;20.00;99.90;;;;;;5042746;28;19921;-68
2022/06/29 04:32:48;;;;;;;;;;;20.00;99.90;;;;;;5042576;28;19959;-68
2022/06/29 04:35:15;;;;;;;;;;;20.00;99.90;;;;;;5042730;28;19960;-68
2022/06/29 04:37:41;;;;;;;;;;;20.00;99.90;;;;;;5042970;28;19952;-68
2022/06/29 04:40:09;;;;;;;;;;;20.00;99.90;;;;;;5042445;28;19952;-68
2022/06/29 04:42:35;;;;;;;;;;;20.00;99.90;;;;;;5042732;28;19921;-68
2022/06/29 04:45:04;;;;;;;;;;;20.00;99.90;;;;;;5042745;28;19928;-68
2022/06/29 04:47:30;;;;;;;;;;;20.00;99.90;;;;;;5043205;28;19952;-68
2022/06/29 04:49:57;;;;;;;;;;;20.10;99.90;;;;;;5046671;28;19928;-68
2022/06/29 04:52:24;;;;;;;;;;;20.10;99.90;;;;;;5046501;28;19952;-68
2022/06/29 04:54:51;;;;;;;;;;;20.10;99.90;;;;;;5046578;28;19928;-68
2022/06/29 04:57:17;;;;;;;;;;;20.20;99.90;;;;;;5046409;28;19948;-68
2022/06/29 04:59:44;;;;;;;;;;;20.20;99.90;;;;;;5046080;28;19952;-68
2022/06/29 05:02:12;;;;;;;;;;;20.30;99.90;;;;;;5046064;28;19921;-68
2022/06/29 05:04:39;;;;;;;;;;;20.30;99.90;;;;;;5045812;28;19927;-68
2022/06/29 05:07:05;;;;;;;;;;;20.40;99.90;;;;;;5046470;28;19967;-68
2022/06/29 05:09:32;;;;;;;;;;;20.40;99.90;;;;;;5045992;28;19920;-67
2022/06/29 05:11:59;;;;;;;;;;;20.50;99.90;;;;;;5046335;28;19957;-67
2022/06/29 05:14:26;;;;;;;;;;;20.60;99.90;;;;;;5046159;28;19952;-67
2022/06/29 05:16:52;;;;;;;;;;;20.70;99.90;;;;;;5046096;28;19929;-67
2022/06/29 05:19:20;;;;;;;;;;;20.80;99.90;;;;;;5046256;28;20124;-67
2022/06/29 05:21:47;;;;;;;;;;;20.90;99.90;;;;;;5045791;28;19921;-67
2022/06/29 05:24:14;;;;;;;;;;;21.00;99.90;;;;;;5045966;28;19963;-67
2022/06/29 05:26:42;;;;;;;;;;;21.00;99.90;;;;;;5042684;28;19933;-67
2022/06/29 05:29:09;;;;;;;;;;;21.10;99.90;;;;;;5026044;28;19922;-67
2022/06/29 05:31:35;;;;;;;;;;;21.10;99.90;;;;;;5025830;28;19976;-67
2022/06/29 05:34:02;;;;;;;;;;;21.20;99.90;;;;;;5033919;28;19928;-66
2022/06/29 05:36:30;;;;;;;;;;;21.20;99.90;;;;;;5045788;28;19928;-66
2022/06/29 05:38:56;;;;;;;;;;;21.20;99.90;;;;;;5045743;28;19921;-67
2022/06/29 05:41:23;;;;;;;;;;;21.30;99.90;;;;;;5045831;28;19956;-67
2022/06/29 05:43:51;;;;;;;;;;;21.30;99.90;;;;;;5045749;28;19922;-67
2022/06/29 05:46:18;;;;;;;;;;;21.40;99.90;;;;;;5045706;28;19924;-67
2022/06/29 05:48:45;;;;;;;;;;;21.50;99.90;;;;;;5045234;28;19956;-66
2022/06/29 05:51:12;;;;;;;;;;;21.60;99.90;;;;;;5044539;28;19921;-66
2022/06/29 05:53:40;;;;;;;;;;;21.60;99.90;;;;;;5044314;28;19994;-66
2022/06/29 05:56:07;;;;;;;;;;;21.60;99.90;;;;;;5045432;28;20255;-66
2022/06/29 05:58:33;;;;;;;;;;;21.60;99.90;;;;;;5044846;28;19929;-66
2022/06/29 06:01:00;;;;;;;;;;;21.60;99.90;;;;;;5045375;28;19963;-66
2022/06/29 06:03:27;;;;;;;;;;;21.70;99.90;;;;;;5044811;28;19927;-66
2022/06/29 06:05:53;;;;;;;;;;;21.70;99.90;;;;;;5045299;28;19964;-66
2022/06/29 06:08:20;;;;;;;;;;;21.80;99.90;;;;;;5045205;28;19956;-66
2022/06/29 06:10:48;;;;;;;;;;;21.90;99.90;;;;;;5044834;28;20216;-66
2022/06/29 06:13:15;;;;;;;;;;;21.90;99.90;;;;;;5044807;28;19921;-66
2022/06/29 06:15:41;;;;;;;;;;;21.90;99.90;;;;;;5045057;28;19928;-66
2022/06/29 06:18:08;;;;;;;;;;;21.90;99.90;;;;;;5044818;28;19921;-67
2022/06/29 06:20:35;;;;;;;;;;;21.90;99.90;;;;;;5044680;28;19956;-66
2022/06/29 06:23:01;;;;;;;;;;;21.90;99.90;;;;;;5044440;28;20000;-66
2022/06/29 06:25:28;;;;;;;;;;;22.00;99.90;;;;;;5044808;28;19921;-66
2022/06/29 06:27:56;;;;;;;;;;;22.00;99.90;;;;;;5044730;28;19952;-66
2022/06/29 06:30:23;;;;;;;;;;;22.00;99.90;;;;;;5041621;28;20016;-66
2022/06/29 06:32:50;;;;;;;;;;;22.00;99.90;;;;;;5045395;28;19921;-66
2022/06/29 06:35:19;;;;;;;;;;;22.00;99.90;;;;;;5044701;28;19921;-66
2022/06/29 06:37:46;;;;;;;;;;;21.90;99.90;;;;;;5044220;28;20163;-66
2022/06/29 06:42:58;;;;;;;;;;;21.90;99.90;;;;;;5040040;28;19925;-66
2022/06/29 06:45:25;;;;;;;;;;;21.90;99.90;;;;;;5041884;28;19921;-66
2022/06/29 06:47:53;;;;;;;;;;;21.90;99.90;;;;;;5037635;28;19921;-66
2022/06/29 06:50:20;;;;;;;;;;;21.80;99.90;;;;;;5040412;28;20008;-66
2022/06/29 06:52:46;;;;;;;;;;;21.80;99.90;;;;;;5043499;28;19975;-66
2022/06/29 06:55:14;;;;;;;;;;;21.70;99.90;;;;;;5044137;28;19990;-66
2022/06/29 06:57:41;;;;;;;;;;;21.60;99.90;;;;;;5042287;28;19997;-66
2022/06/29 07:00:10;;;;;;;;;;;21.50;99.90;;;;;;5039452;28;19975;-66
2022/06/29 07:02:37;;;;;;;;;;;21.50;99.90;;;;;;5043870;28;19984;-66
2022/06/29 07:05:04;;;;;;;;;;;21.50;99.90;;;;;;5043972;28;19923;-66
2022/06/29 07:07:31;;;;;;;;;;;21.50;99.90;;;;;;5041503;28;19963;-66
2022/06/29 07:09:57;;;;;;;;;;;21.40;99.90;;;;;;5042059;28;19960;-66
2022/06/29 07:12:24;;;;;;;;;;;21.50;99.90;;;;;;5039004;28;20236;-66
2022/06/29 07:14:51;;;;;;;;;;;21.50;99.90;;;;;;5046559;28;19921;-66
2022/06/29 07:17:19;;;;;;;;;;;21.60;99.90;;;;;;5043807;28;19928;-66
2022/06/29 07:19:46;;;;;;;;;;;21.60;99.90;;;;;;5043739;28;19921;-66
2022/06/29 07:22:12;;;;;;;;;;;21.80;99.90;;;;;;5043849;28;19959;-66
2022/06/29 07:24:39;;;;;;;;;;;22.00;99.90;;;;;;5043960;28;19928;-66
2022/06/29 07:27:06;;;;;;;;;;;22.10;99.90;;;;;;5042409;28;19960;-66
2022/06/29 07:29:32;;;;;;;;;;;22.20;99.90;;;;;;5043511;28;19936;-66
2022/06/29 07:31:59;;;;;;;;;;;22.30;99.90;;;;;;5045019;28;19960;-66
2022/06/29 07:34:27;;;;;;;;;;;22.40;99.90;;;;;;5042481;28;20259;-66
2022/06/29 07:36:54;;;;;;;;;;;22.50;99.90;;;;;;5041693;28;19980;-66
2022/06/29 07:39:21;;;;;;;;;;;22.50;99.90;;;;;;5043116;28;19956;-65
2022/06/29 07:41:47;;;;;;;;;;;22.60;99.90;;;;;;5063299;28;19927;-66
2022/06/29 07:44:14;;;;;;;;;;;22.60;99.90;;;;;;5060139;28;20231;-66
2022/06/29 07:46:41;;;;;;;;;;;22.70;99.90;;;;;;5042877;28;19921;-66
2022/06/29 07:49:07;;;;;;;;;;;22.80;99.90;;;;;;5043219;28;19963;-66
2022/06/29 07:51:36;;;;;;;;;;;22.80;99.90;;;;;;5043519;28;19921;-66
2022/06/29 07:54:03;;;;;;;;;;;22.80;99.90;;;;;;5038135;28;19984;-66
2022/06/29 07:56:30;;;;;;;;;;;22.90;99.90;;;;;;5045378;28;19977;-66
2022/06/29 07:58:57;;;;;;;;;;;23.10;99.90;;;;;;5063302;28;19984;-66
2022/06/29 08:01:24;;;;;;;;;;;23.20;99.90;;;;;;5063668;28;19959;-66
2022/06/29 08:03:57;;;;;;;;;;;23.30;99.90;;;;;;5062412;28;19921;-66
2022/06/29 08:06:24;;;;;;;;;;;23.40;99.90;;;;;;5052774;28;19985;-66
2022/06/29 08:08:53;;;;;;;;;;;23.40;99.90;;;;;;5042916;28;19921;-65
2022/06/29 08:11:20;;;;;;;;;;;23.50;99.90;;;;;;5058382;28;19921;-67
2022/06/29 08:13:46;;;;;;;;;;;23.60;99.90;;;;;;5060914;28;19928;-66
2022/06/29 08:16:13;;;;;;;;;;;23.70;99.90;;;;;;5039698;28;19953;-66
2022/06/29 08:18:40;;;;;;;;;;;23.90;99.90;;;;;;5038202;28;20257;-66
2022/06/29 08:21:06;;;;;;;;;;;24.00;99.90;;;;;;5042187;28;20237;-66
2022/06/29 08:23:33;;;;;;;;;;;23.90;99.90;;;;;;5045435;28;20230;-66
2022/06/29 08:26:01;;;;;;;;;;;23.90;99.90;;;;;;5049713;28;19921;-66
2022/06/29 08:28:28;;;;;;;;;;;23.90;99.90;;;;;;5041670;28;19980;-67
2022/06/29 08:30:54;;;;;;;;;;;24.00;99.90;;;;;;5054571;28;19975;-66
2022/06/29 08:33:22;;;;;;;;;;;24.10;99.90;;;;;;5039713;28;20112;-66
2022/06/29 08:35:49;;;;;;;;;;;24.20;99.90;;;;;;5046224;28;19921;-66
2022/06/29 08:38:15;;;;;;;;;;;24.30;99.90;;;;;;5041328;28;19921;-66
2022/06/29 08:40:44;;;;;;;;;;;24.40;99.90;;;;;;5041581;28;19960;-66
2022/06/29 08:43:13;;;;;;;;;;;24.50;99.90;;;;;;5037364;23;20068;-90
2022/06/29 08:45:42;;;;;;;;;;;24.50;99.90;;;;;;5010642;28;19922;-90
2022/06/29 08:48:09;;;;;;;;;;;24.50;99.90;;;;;;5001100;28;19929;-90
2022/06/29 08:50:37;;;;;;;;;;;24.50;99.90;;;;;;4997037;28;19964;-89
2022/06/29 08:53:06;;;;;;;;;;;24.50;99.90;;;;;;4994815;28;19926;-90
2022/06/29 08:55:36;;;;;;;;;;;24.50;99.90;;;;;;4993274;28;19937;-90
2022/06/29 08:58:03;;;;;;;;;;;24.50;99.90;;;;;;5009122;22;19930;-66
2022/06/29 09:00:31;;;;;;;;;;;24.40;99.90;;;;;;5050058;28;19967;-66
2022/06/29 09:02:58;;;;;;;;;;;24.40;99.90;;;;;;5045934;28;19964;-66
2022/06/29 09:05:24;;;;;;;;;;;24.30;99.90;;;;;;5041832;28;19953;-67
2022/06/29 09:07:51;;;;;;;;;;;24.30;99.90;;;;;;5044019;28;19923;-67
2022/06/29 09:10:18;;;;;;;;;;;24.30;99.90;;;;;;5045940;28;19987;-67
2022/06/29 09:12:49;;;;;;;;;;;24.30;99.90;;;;;;5060066;22;19956;-73
2022/06/29 09:15:16;;;;;;;;;;;24.30;99.90;;;;;;5045405;28;19927;-73
2022/06/29 09:17:44;;;;;;;;;;;24.30;99.90;;;;;;5046222;28;19980;-72
2022/06/29 09:20:12;;;;;;;;;;;24.40;99.90;;;;;;5047299;28;19956;-73
2022/06/29 09:22:41;;;;;;;;;;;24.50;99.90;;;;;;5056982;28;19921;-73
2022/06/29 09:25:21;;;;;;;;;;;24.50;99.90;;;;;;5045792;28;19980;-72
2022/06/29 09:27:47;;;;;;;;;;;24.60;99.90;;;;;;5045463;28;19970;-73
2022/06/29 09:30:23;;;;;;;;;;;24.70;99.90;;;;;;5044826;28;19929;-72
2022/06/29 09:32:57;;;;;;;;;;;24.80;99.90;;;;;;5044601;28;19921;-71
2022/06/29 09:35:24;;;;;;;;;;;24.80;99.90;;;;;;5046004;28;19959;-71
2022/06/29 09:37:51;;;;;;;;;;;24.80;99.90;;;;;;5045916;28;19928;-71
2022/06/29 09:40:17;;;;;;;;;;;24.80;99.90;;;;;;5045859;28;19929;-71
2022/06/29 09:42:44;;;;;;;;;;;24.90;99.90;;;;;;5045193;28;19921;-71
2022/06/29 09:45:11;;;;;;;;;;;25.00;99.90;;;;;;5045538;28;19956;-72
2022/06/29 09:47:38;;;;;;;;;;;25.20;99.90;;;;;;5045473;28;19964;-72
2022/06/29 09:50:10;;;;;;;;;;;25.40;99.90;;;;;;5045667;28;19921;-71
2022/06/29 09:52:39;;;;;;;;;;;25.40;99.90;;;;;;5044286;28;20087;-70
2022/06/29 09:55:07;;;;;;;;;;;25.40;99.90;;;;;;5045138;28;19953;-72
2022/06/29 09:57:35;;;;;;;;;;;25.30;99.90;;;;;;5049865;28;19921;-72
2022/06/29 10:02:47;;;;;;;;;;;25.50;99.90;;;;;;5044822;28;20120;-72
2022/06/29 10:05:16;;;;;;;;;;;25.50;99.90;;;;;;5036844;28;19964;-72
2022/06/29 10:07:44;;;;;;;;;;;25.60;99.90;;;;;;5044777;28;19967;-71
2022/06/29 10:10:11;;;;;;;;;;;25.70;99.90;;;;;;5040449;28;20247;-72
2022/06/29 10:15:41;;;;;;;;;;;25.80;99.90;;;;;;5042696;28;19924;-72
2022/06/29 10:18:10;;;;;;;;;;;26.00;99.90;;;;;;5044333;28;19921;-72
2022/06/29 10:20:42;;;;;;;;;;;26.20;99.90;;;;;;5044341;28;19948;-72
2022/06/29 10:23:08;;;;;;;;;;;26.30;99.90;;;;;;5044254;28;19964;-71
2022/06/29 10:25:35;;;;;;;;;;;26.40;99.90;;;;;;5044456;28;19952;-72
2022/06/29 10:28:08;;;;;;;;;;;26.50;99.90;;;;;;5044437;28;20262;-71
2022/06/29 10:30:35;;;;;;;;;;;26.50;99.90;;;;;;5043423;28;19980;-71
2022/06/29 10:33:17;;;;;;;;;;;26.50;99.90;;;;;;5040297;28;19964;-70
2022/06/29 10:36:00;;;;;;;;;;;26.50;99.90;;;;;;5039216;28;19964;-70
2022/06/29 10:38:28;;;;;;;;;;;26.50;99.90;;;;;;5044469;28;19925;-71
2022/06/29 10:41:08;;;;;;;;;;;26.40;99.90;;;;;;5044247;28;19983;-71
2022/06/29 10:43:36;;;;;;;;;;;26.30;99.90;;;;;;5042850;28;19925;-71
2022/06/29 10:46:03;;;;;;;;;;;26.10;99.90;;;;;;5040523;28;19917;-71
2022/06/29 10:48:31;;;;;;;;;;;26.00;99.90;;;;;;5042394;28;19989;-72
2022/06/29 10:50:59;;;;;;;;;;;25.90;99.90;;;;;;5043518;28;19984;-71
2022/06/29 10:53:26;;;;;;;;;;;25.80;99.90;;;;;;5042783;28;19925;-72
2022/06/29 10:55:54;;;;;;;;;;;25.70;99.90;;;;;;5043226;28;20272;-70
2022/06/29 10:58:21;;;;;;;;;;;25.70;99.90;;;;;;5044707;28;19921;-70
2022/06/29 11:00:50;;;;;;;;;;;25.70;99.90;;;;;;5044399;28;19927;-71
2022/06/29 11:03:18;;;;;;;;;;;25.70;99.90;;;;;;5044078;28;19959;-71
2022/06/29 11:14:01;;;;;;;;;;;25.90;99.90;;;;;;5042675;28;19929;-72
2022/06/29 11:16:32;;;;;;;;;;;26.10;99.90;;;;;;5042096;28;19921;-72
2022/06/29 11:18:59;;;;;;;;;;;26.10;99.90;;;;;;5043969;28;19956;-72
2022/06/29 11:21:28;;;;;;;;;;;26.20;99.90;;;;;;5039863;28;19975;-72
2022/06/29 11:24:05;;;;;;;;;;;26.30;99.90;;;;;;5041299;28;19925;-72
2022/06/29 11:26:33;;;;;;;;;;;26.40;99.90;;;;;;5039861;28;19921;-72
2022/06/29 11:29:00;;;;;;;;;;;26.60;99.90;;;;;;5043323;28;19921;-71
2022/06/29 11:31:27;;;;;;;;;;;26.70;99.90;;;;;;5041860;28;19972;-72
2022/06/29 11:33:54;;;;;;;;;;;26.80;99.90;;;;;;5041864;28;20208;-72
2022/06/29 11:36:22;;;;;;;;;;;26.70;99.90;;;;;;5042183;28;19925;-72
2022/06/29 11:38:50;;;;;;;;;;;26.40;99.90;;;;;;5043373;28;19921;-72
2022/06/29 11:41:18;;;;;;;;;;;26.40;99.90;;;;;;5042846;28;19921;-71
2022/06/29 11:43:44;;;;;;;;;;;26.30;99.90;;;;;;5042575;28;19921;-72
2022/06/29 11:46:18;;;;;;;;;;;26.20;99.90;;;;;;5043093;28;19917;-72
2022/06/29 11:49:33;;;;;;;;;;;26.20;99.90;;;;;;5043367;28;19928;-71
2022/06/29 11:51:37;;;;;;;;;;;26.10;99.90;;;;;;5043248;28;19982;-71
2022/06/29 11:54:06;;;;;;;;;;;26.10;99.90;;;;;;5039653;28;19944;-71
2022/06/29 11:56:34;;;;;;;;;;;26.20;99.90;;;;;;5042120;28;19925;-72
2022/06/29 11:59:04;;;;;;;;;;;26.20;99.90;;;;;;5042470;28;19992;-71
2022/06/29 12:01:31;;;;;;;;;;;26.30;99.90;;;;;;5040110;28;19937;-72
2022/06/29 12:03:58;;;;;;;;;;;26.40;99.90;;;;;;5041232;28;20125;-73
2022/06/29 12:06:26;;;;;;;;;;;26.40;99.90;;;;;;5033498;28;19996;-71
2022/06/29 12:08:55;;;;;;;;;;;26.50;99.90;;;;;;5039097;28;20286;-72
2022/06/29 12:11:22;;;;;;;;;;;26.50;99.90;;;;;;5037234;28;19921;-72
2022/06/29 12:13:50;;;;;;;;;;;26.60;99.90;;;;;;5042564;28;20177;-71
2022/06/29 12:16:17;;;;;;;;;;;26.60;99.90;;;;;;5043223;28;19921;-71
2022/06/29 12:18:43;;;;;;;;;;;26.90;99.90;;;;;;5037670;28;19927;-72
2022/06/29 12:21:10;;;;;;;;;;;27.10;99.90;;;;;;5023761;28;19960;-72
2022/06/29 12:23:37;;;;;;;;;;;27.30;99.90;;;;;;5035635;28;20263;-71
2022/06/29 12:26:04;;;;;;;;;;;27.40;99.90;;;;;;5042958;28;19928;-72
2022/06/29 12:28:31;;;;;;;;;;;27.50;99.90;;;;;;5042758;28;19921;-71
2022/06/29 12:30:59;;;;;;;;;;;27.60;99.90;;;;;;5043172;28;19921;-71
2022/06/29 12:33:25;;;;;;;;;;;27.60;99.90;;;;;;5042861;28;19992;-71
2022/06/29 12:35:52;;;;;;;;;;;27.70;99.90;;;;;;5042535;28;19953;-72
2022/06/29 12:38:19;;;;;;;;;;;27.60;99.90;;;;;;5042730;28;19948;-72
2022/06/29 12:40:46;;;;;;;;;;;27.50;99.90;;;;;;5043006;28;20155;-72
2022/06/29 12:43:12;;;;;;;;;;;27.50;99.90;;;;;;5042585;28;19921;-72
2022/06/29 12:45:39;;;;;;;;;;;27.60;99.90;;;;;;5042951;28;19975;-73
2022/06/29 12:48:07;;;;;;;;;;;27.60;99.90;;;;;;5042994;28;19921;-71
2022/06/29 12:50:34;;;;;;;;;;;27.90;99.90;;;;;;5042647;28;20275;-72
2022/06/29 12:53:00;;;;;;;;;;;28.40;99.90;;;;;;5042183;28;19922;-72
2022/06/29 12:55:27;;;;;;;;;;;28.50;99.90;;;;;;5042952;28;19984;-72
2022/06/29 12:57:54;;;;;;;;;;;28.60;99.90;;;;;;5042498;28;19928;-72
2022/06/29 13:00:20;;;;;;;;;;;28.60;99.90;;;;;;5042919;28;19921;-72
2022/06/29 13:02:47;;;;;;;;;;;28.80;99.90;;;;;;5042870;28;19956;-73
2022/06/29 13:05:15;;;;;;;;;;;29.10;99.90;;;;;;5042883;28;19937;-73
2022/06/29 13:07:42;;;;;;;;;;;29.20;99.90;;;;;;5042740;28;19921;-73
2022/06/29 13:10:09;;;;;;;;;;;29.10;99.90;;;;;;5045272;28;19960;-72
2022/06/29 13:12:35;;;;;;;;;;;28.90;99.90;;;;;;5045565;28;20112;-73
2022/06/29 13:15:03;;;;;;;;;;;28.70;99.90;;;;;;5046326;28;19976;-72
2022/06/29 13:17:29;;;;;;;;;;;28.60;99.90;;;;;;5046551;28;19921;-73
2022/06/29 13:19:56;;;;;;;;;;;28.50;99.90;;;;;;5046129;28;19959;-72
2022/06/29 13:22:24;;;;;;;;;;;28.60;99.90;;;;;;5045632;28;20204;-73
2022/06/29 13:24:52;;;;;;;;;;;28.60;99.90;;;;;;5045326;28;19979;-72
2022/06/29 13:27:19;;;;;;;;;;;28.70;99.90;;;;;;5045887;28;19921;-70
2022/06/29 13:29:46;;;;;;;;;;;29.00;99.90;;;;;;5045493;28;19965;-74
2022/06/29 13:32:12;;;;;;;;;;;29.10;99.90;;;;;;5046224;28;19953;-72
2022/06/29 13:34:39;;;;;;;;;;;29.10;99.90;;;;;;5046457;28;19971;-71
2022/06/29 13:37:05;;;;;;;;;;;29.00;99.90;;;;;;5046469;28;19984;-72
2022/06/29 13:39:33;;;;;;;;;;;28.80;99.90;;;;;;5044045;28;19922;-71
2022/06/29 13:42:00;;;;;;;;;;;28.80;99.90;;;;;;5044311;28;19928;-74
2022/06/29 13:44:27;;;;;;;;;;;28.70;99.90;;;;;;5044922;28;19921;-73
2022/06/29 13:46:54;;;;;;;;;;;28.60;99.90;;;;;;5044888;28;19955;-72
2022/06/29 13:49:21;;;;;;;;;;;28.70;99.90;;;;;;5045432;28;20144;-73
2022/06/29 13:51:47;;;;;;;;;;;29.10;99.90;;;;;;5044570;28;19921;-72
2022/06/29 13:54:14;;;;;;;;;;;29.50;99.90;;;;;;5044632;28;20235;-72
2022/06/29 13:56:42;;;;;;;;;;;29.70;99.90;;;;;;5044837;28;19935;-72
2022/06/29 13:59:09;;;;;;;;;;;29.90;99.90;;;;;;5045160;28;19957;-72
2022/06/29 14:01:36;;;;;;;;;;;29.90;99.90;;;;;;5045104;28;19988;-72
2022/06/29 14:04:03;;;;;;;;;;;29.80;99.90;;;;;;5043857;28;20120;-72
2022/06/29 14:06:30;;;;;;;;;;;29.80;99.90;;;;;;5044446;28;19960;-72
2022/06/29 14:08:56;;;;;;;;;;;29.90;99.90;;;;;;5044411;28;19956;-74
2022/06/29 14:11:23;;;;;;;;;;;29.80;99.90;;;;;;5045538;28;19928;-73
2022/06/29 14:13:51;;;;;;;;;;;29.60;99.90;;;;;;5044456;28;20256;-71
2022/06/29 14:16:18;;;;;;;;;;;29.30;99.90;;;;;;5044878;28;19928;-72
2022/06/29 14:18:44;;;;;;;;;;;29.10;99.90;;;;;;5044336;28;19960;-74
2022/06/29 14:21:11;;;;;;;;;;;28.90;99.90;;;;;;5044723;28;19928;-72
2022/06/29 14:23:38;;;;;;;;;;;28.70;99.90;;;;;;5043926;28;19960;-71
2022/06/29 14:26:05;;;;;;;;;;;28.50;99.90;;;;;;5045151;28;19997;-72
2022/06/29 14:28:31;;;;;;;;;;;28.20;99.90;;;;;;5048755;28;19988;-72
2022/06/29 14:30:59;;;;;;;;;;;28.00;99.90;;;;;;5043250;28;19964;-73
2022/06/29 14:33:26;;;;;;;;;;;27.90;99.90;;;;;;5047829;28;20001;-73
2022/06/29 14:35:53;;;;;;;;;;;27.80;99.90;;;;;;5044196;28;19921;-72
2022/06/29 14:38:19;;;;;;;;;;;27.60;99.90;;;;;;5056461;28;20154;-73